Hagshult, Sweden

6:58 PM CEST on July 30, 2014 (GMT +0200)
Varnamo (IJNKPING10) Elev 617 ft | 57.19 °N, 14.01 °E | Change Station

Current weather conditions updated 56 seconds ago

Clear
Clear
71.9 °F
Feels Like 72 °F
N
6.2
Wind Variable Wind from SSW
Gusts 7.8 mph

Tomorrow is forecast to be nearly the same temperature as today.

Today
High -- | Low -- °F
--% Chance of Precip.
Yesterday
High -- | Low -- °F
Precip. -- in
4:56 AM 9:22 PM
Waxing Crescent, 12% visible
Pressure 29.71 in
Visibility -9999.0 miles
Clouds
Heat Index 72 °F
Dew Point 65 °F
Humidity 79%
Rainfall 0.00 in
Snow Depth Not available.
UV Not available.
Pollen Not available.
Air Quality Not available.
Flu Activity Not available.
METAR ESGJ 301650Z 25005KT CAVOK 22/13 Q1006

More Conditions Fewer Conditions

Pressure 29.71 in
Visibility -9999.0 miles
Clouds
Heat Index 72 °F
Dew Point 65 °F
Humidity 79%
Rainfall 0.00 in
Snow Depth Not available.
UV Not available.
Pollen Not available.
Air Quality Not available.
Flu Activity Not available.
METAR ESGJ 301650Z 25005KT CAVOK 22/13 Q1006

More Conditions Fewer Conditions

10-Day Weather Forecast

Almanac

Astronomy

Jul. 30, 2014 Rise Set
Actual Time 4:56 AM CEST 9:22 PM CEST
Civil Twilight 4:03 AM CEST 10:14 PM CEST
Nautical Twilight 2:36 AM CEST 11:38 PM CEST
Astronomical Twilight Sun does not rise Sun does not rise
Moon 9:04 AM CEST 9:57 PM CEST
Length of Visible Light 18h 11m
Length of Day
16h 26m
Tomorrow will be 4m 4s shorter.
Waxing Crescent, 12% of the Moon is Illuminated
Today
Waxing Crescent
Aug 3
First Quarter
Aug 10
Full
Aug 17
Last Quarter
Aug 25
New

Today's Extremes

Country Highs Country Lows

Community

WunderPhotos

Upload Photos

1,739,133 photos uploaded!

WunderBlogs® & News

Nearby

Snow Depth

Not available.

Earthquake Activity

City Distance Mag. Time & Date
No recent earthquake activity has been reported nearby.
Minimum magnitude displayed is 2.5.

Coastal Water Temperatures

Place Temperature
No Stations Reporting

Nearby Weather Stations

Station Location Temp. Heat Index Dew Point Humidity Wind Precip. Elev Updated Type
Varnamo, V�rnamo 71.9 °F 72 °F 65 °F 79% SSW  at  6.2 mph 0.00 in / hr 617 ft 6:57 PM CEST Normal
Perstorp - Odestugu, Sweden, Odestugu 67.3 °F - 64 °F 88% SSE  at  0.7 mph 0.00 in / hr 909 ft 6:58 PM CEST Rapid Fire

Show More Stations Show Fewer Stations